ESNU/UME METAR and TAF weather

Enter ICAO airport designator
Station Type Date Time Source
ESNU METAR 2018/04/21 20:50 UTC NOAA

ESNU 212050Z 05002KT 9999 BKN025 OVC033 01/00 Q1004 R14/09//95


Station Type Date Time Source
ESNU Decoded METAR 2018/04/21 20:50 UTC NOAA

Umea Flygplats, Sweden (ESNU) 63-48N 020-17E 14M
Apr 21, 2018 - 04:50 PM EDT / 2018.04.21 2050 UTC
Wind: from the NE (050 degrees) at 2 MPH (2 KT):0
Visibility: greater than 7 mile(s):0
Sky conditions: overcast
Temperature: 33 F (1 C)
Dew Point: 32 F (0 C)
Relative Humidity: 93%
Pressure (altimeter): 29.65 in. Hg (1004 hPa)
ob: ESNU 212050Z 05002KT 9999 BKN025 OVC033 01/00 Q1004 R14/09//95
cycle: 21

Station Type Date Time Source
ESNU TAF 2017/11/01 15:33 UTC NOAA

TAF TAF ESNU 011430Z 0115/0224 13005KT 9999 OVC004
TEMPO 0115/0124 OVC008


Example: see airport list